Boyne City, MI (49712)

9:50 AM EDT on September 02, 2015 (GMT -0400)
3.4 mi SSW of Boyne City | | Change Station
CLOSE
Current Station
Personal Weather Station
Location: Boyne City, MI
Elevation: 820 ft
Nearby Weather Stations

Elev 820 ft 45.17 °N, 85.04 °W | Updated 22 seconds ago

Partly Cloudy
Partly Cloudy
78.5 °F
Feels Like 81 °F
N
1.1
Wind Variable Wind from SSW
Gusts 2.7 mph

Today
High -- | Low -- °F
--% Chance of Precip.
Yesterday
High -- | Low -- °F
Precip. -- in
7:02 AM 8:16 PM
Waning Gibbous, 80% visible
Pressure 30.01 in
Visibility 7.0 miles
Clouds Clear
Heat Index 81 °F
Dew Point 72 °F
Humidity 81%
Rainfall 0.00 in
Snow Depth Not available.
UV 2 out of 12
Pollen 10.10 out of 12
Air Quality Not available.
Flu Activity Not available.
METAR KCVX 021334Z AUTO 20003KT 7SM CLR 25/22 A3001 RMK AO2 T02450221
Pressure 30.01 in
Visibility 7.0 miles
Clouds Clear
Heat Index 81 °F
Dew Point 72 °F
Humidity 81%
Rainfall 0.00 in
Snow Depth Not available.
UV 2 out of 12
Pollen 10.10 out of 12
Air Quality Not available.
Flu Activity Not available.
METAR KCVX 021334Z AUTO 20003KT 7SM CLR 25/22 A3001 RMK AO2 T02450221
Nowcast | as of 9:00 am EDT on September 2, 2015

At 10 am...partly cloudy. Temperature 73. Light winds. At 12 PM...partly cloudy. Temperature 77. West winds 5 mph. At 2 PM...partly cloudy. Temperature 79. Northwest winds 6 mph. At 4 PM...partly cloudy. Temperature 80. Northwest winds 7 mph.

×

10-Day Weather Forecast

×

Almanac

Astronomy

Sep. 02, 2015 Rise Set
Actual Time
Civil Twilight
Nautical Twilight
Astronomical Twilight
Moon
Length of Visible Light
Length of Day
Tomorrow will be .
, % of the Moon is Illuminated

Today's Extremes

State Highs State Lows

Community

WunderPhotos

Upload Photos

1,851,754 photos uploaded!

WunderBlogs® & News

Nearby

Air Quality

  Air Quality AQ Index Pollutant
Not available.

Snow Depth

Station Depth Elevation

Earthquake Activity

City Distance Mag. Time & Date
Minimum magnitude displayed is 2.5.

Coastal Water Temperatures

Place Temperature

Stations

Nearby Weather Stations

Station Location Temp. Windchill Dew Point Humidity Wind Precip. Elev Updated Type